aviador You're here:

MMHO Decoded Metar

HERMOSILLO in MEXICO
Report Time2018-01-21 05:42:00
UTC Time2018-01-21 06:40:01
Flight Rules vfr VFR
Wind300° at 03 kt
W.Decomp.*RWY 29: 3.0 kt HW 0 kt LCW
RWY 23: 1.5 kt HW 2.6 kt RCW
W.Rank300° ranks 34
Current wind is below 300° avg. (5.3)
Visibility9999 m
Phenomena:N/A
Clouds:N/A
Expected CloudBase > 4,400 ft AGL from Temp-Dew spread
CeilingNone
Temp14°C (ISA 0)
Dew Point03°C (48% RH)
AAT11.4°C
QNH1018 hPa
Density Alt564 ft
Elevation604 ft
Report Wrong Elevation
Raw Report
METAR MMHO 210542Z 30003KT 10SM SKC 14/03 A3006 RMK SLP181 52022 934
HZY=

Extra information for MMHO:More info

Metar Taf Metar & Taf Last 4 Metars F.Rules Stats Wind Profile Meteogram Temp Stats Airport Information Weather charts Add Link Nearby VenuesMetar ALERT Operation Metar Decoded Social comments